RKPK/PUS METAR and TAF weather

Enter ICAO airport designator
Station Type Date Time Source
RKPK METAR 2019/06/18 04:00 UTC NOAA

RKPK 180400Z 36004KT 9999 SCT050 OVC110 22/16 Q1010


Station Type Date Time Source
RKPK Decoded METAR 2019/06/18 04:00 UTC NOAA

Pusan / Kimhae International Airport, Korea, South (RKPK) 35-11N 128-56E 6M
Jun 18, 2019 - 12:00 AM EDT / 2019.06.18 0400 UTC
Wind: from the N (360 degrees) at 5 MPH (4 KT):0
Visibility: greater than 7 mile(s):0
Sky conditions: overcast
Temperature: 71 F (22 C)
Dew Point: 60 F (16 C)
Relative Humidity: 68%
Pressure (altimeter): 29.83 in. Hg (1010 hPa)
ob: RKPK 180400Z 36004KT 9999 SCT050 OVC110 22/16 Q1010
cycle: 4

Station Type Date Time Source
RKPK TAF 2019/06/18 01:58 UTC NOAA

TAF
AMD RKPK 180140Z 1801/1906 33006KT 8000 NSC TX26/1806Z TN18/1821Z
FM180230 18010KT 4800 -TSRA BR SCT015CB BKN030 OVC100
FM180330 18010KT 8000 BKN030 BKN100
BECMG 1804/1805 NSW NSC
BECMG 1815/1816 24006KT 9999 BKN030
BECMG 1901/1902 18010KT

Example: see airport list